Terminal Aerodrome Forecast
Issued by NWS Cleveland, OH

Home | Current Version | Previous Version | Text Only | Print | Product List | Glossary Off
Versions: 1 2 3 4 5 6 7 8 9 10 11 12 13 14 15 16 17 18 19 20 21 22 23 24 25

626
FTUS41 KCLE 191120
TAFCLE
TAF
KCLE 191120Z 1912/2018 23003KT P6SM VCTS SCT040CB BKN120
      TEMPO 1912/1913 3SM -TSRA BR BKN040CB OVC120
     FM191300 23005KT P6SM SCT040 BKN120
     FM191700 28008KT P6SM VCTS BKN040CB
     FM192100 31010KT P6SM SCT060
     FM200200 18005KT P6SM FEW200=

USA.gov is the U.S. government's official web portal to all federal, state and local government web resources and services.